createdAt,value
2023-01-29T00:00:51.032Z,14.40
2023-01-29T00:02:52.522Z,15.27
2023-01-29T00:04:58.709Z,14.27
2023-01-29T00:07:00.408Z,13.15
2023-01-29T00:09:01.852Z,14.32
2023-01-29T00:11:05.036Z,14.30
2023-01-29T00:13:06.498Z,13.77
2023-01-29T00:15:08.269Z,13.20
2023-01-29T00:17:09.803Z,13.38
2023-01-29T00:19:11.437Z,14.48
2023-01-29T00:21:15.760Z,14.25
2023-01-29T00:23:17.743Z,14.35
2023-01-29T00:25:19.255Z,14.82
2023-01-29T00:27:20.719Z,13.73
2023-01-29T00:29:22.316Z,13.25
2023-01-29T00:31:25.838Z,12.95
2023-01-29T00:35:30.916Z,13.13
2023-01-29T00:37:32.428Z,13.13
2023-01-29T00:39:47.012Z,13.50
2023-01-29T00:41:49.484Z,12.48
2023-01-29T00:43:51.152Z,14.57
2023-01-29T00:45:52.565Z,14.02
2023-01-29T00:47:54.001Z,13.40
2023-01-29T00:49:55.782Z,12.98
2023-01-29T00:51:57.267Z,14.02
2023-01-29T00:53:58.985Z,14.27
2023-01-29T00:56:00.580Z,14.50
2023-01-29T00:58:02.029Z,14.10
2023-01-29T01:00:06.414Z,13.57
2023-01-29T01:02:08.757Z,17.75
2023-01-29T01:04:11.913Z,19.00
2023-01-29T01:06:13.395Z,14.68
2023-01-29T01:08:14.920Z,14.30
2023-01-29T01:10:23.472Z,14.32
2023-01-29T01:12:25.029Z,14.80
2023-01-29T01:14:26.892Z,14.57
2023-01-29T01:16:28.406Z,15.80
2023-01-29T01:18:31.769Z,14.57
2023-01-29T01:20:35.481Z,14.80
2023-01-29T01:22:37.036Z,15.05
2023-01-29T01:24:38.589Z,15.10
2023-01-29T01:26:40.243Z,14.27
2023-01-29T01:28:41.743Z,14.52
2023-01-29T01:30:43.273Z,15.23
2023-01-29T01:32:44.786Z,15.18
2023-01-29T01:34:46.229Z,14.65
2023-01-29T01:36:48.327Z,15.45
2023-01-29T01:38:49.991Z,15.13
2023-01-29T01:40:51.426Z,14.02
2023-01-29T01:42:55.115Z,14.40
2023-01-29T01:45:02.502Z,14.93
2023-01-29T01:47:03.991Z,14.88
2023-01-29T01:49:19.021Z,14.43
2023-01-29T01:51:24.140Z,14.32
2023-01-29T01:53:36.773Z,14.80
2023-01-29T01:55:45.552Z,14.38
2023-01-29T01:57:53.790Z,15.60
2023-01-29T02:00:02.271Z,14.95
2023-01-29T02:02:05.013Z,14.43
2023-01-29T02:04:15.177Z,14.73
2023-01-29T02:06:17.172Z,13.85
2023-01-29T02:08:45.326Z,14.45
2023-01-29T02:10:48.869Z,15.25
2023-01-29T02:14:52.822Z,14.38
2023-01-29T02:16:54.722Z,14.23
2023-01-29T02:18:56.500Z,13.65
2023-01-29T02:21:16.962Z,13.65
2023-01-29T02:23:21.359Z,13.88
2023-01-29T02:25:44.775Z,13.75
2023-01-29T02:28:15.298Z,13.73
2023-01-29T02:30:49.475Z,14.13
2023-01-29T02:33:29.622Z,14.88
2023-01-29T02:35:50.514Z,14.30
2023-01-29T02:37:57.910Z,14.00
2023-01-29T02:40:12.031Z,14.25
2023-01-29T02:42:25.171Z,15.90
2023-01-29T02:44:38.842Z,14.25
2023-01-29T02:46:56.550Z,15.10
2023-01-29T02:49:07.225Z,14.80
2023-01-29T02:51:29.153Z,15.43
2023-01-29T02:53:42.764Z,15.75
2023-01-29T02:55:59.309Z,15.23
2023-01-29T02:58:09.842Z,14.85
2023-01-29T03:00:18.588Z,14.77
2023-01-29T03:02:32.616Z,16.23
2023-01-29T03:04:39.350Z,16.33
2023-01-29T03:06:50.541Z,15.40
2023-01-29T03:09:11.688Z,15.82
2023-01-29T03:11:14.823Z,15.85
2023-01-29T03:13:35.035Z,14.93
2023-01-29T03:15:46.388Z,16.77
2023-01-29T03:18:14.022Z,15.85
2023-01-29T03:20:18.966Z,15.25
2023-01-29T03:22:21.591Z,15.13
2023-01-29T03:24:44.864Z,14.60
2023-01-29T03:26:46.363Z,15.70
2023-01-29T03:28:49.346Z,15.52
2023-01-29T03:30:55.090Z,15.65
2023-01-29T03:32:59.029Z,16.50
2023-01-29T03:35:05.209Z,16.55
2023-01-29T03:37:45.349Z,16.58
2023-01-29T03:39:46.961Z,15.65
2023-01-29T03:41:56.608Z,16.02
2023-01-29T03:44:03.841Z,16.33
2023-01-29T03:46:08.513Z,16.15
2023-01-29T03:48:33.203Z,15.95
2023-01-29T03:50:38.731Z,15.50
2023-01-29T03:52:59.792Z,15.43
2023-01-29T03:55:14.638Z,15.52
2023-01-29T03:57:42.403Z,15.25
2023-01-29T04:00:08.788Z,15.75
2023-01-29T04:02:19.053Z,15.65
2023-01-29T04:04:31.491Z,15.95
2023-01-29T04:06:37.239Z,16.27
2023-01-29T04:08:51.213Z,15.70
2023-01-29T04:13:04.527Z,16.88
2023-01-29T04:15:10.112Z,15.25
2023-01-29T04:17:17.777Z,16.65
2023-01-29T04:19:19.348Z,17.45
2023-01-29T04:21:21.670Z,16.98
2023-01-29T04:23:25.873Z,16.15
2023-01-29T04:25:36.298Z,16.35
2023-01-29T04:27:45.824Z,17.17
2023-01-29T04:30:06.031Z,18.02
2023-01-29T04:32:10.252Z,16.63
2023-01-29T04:34:33.203Z,19.08
2023-01-29T04:36:48.507Z,17.33
2023-01-29T04:39:12.103Z,18.20
2023-01-29T04:41:27.656Z,18.17
2023-01-29T04:43:41.539Z,17.50
2023-01-29T04:48:05.763Z,17.20
2023-01-29T04:50:26.595Z,16.35
2023-01-29T04:52:46.203Z,16.88
2023-01-29T04:54:54.242Z,15.38
2023-01-29T04:57:10.623Z,17.55
2023-01-29T04:59:17.658Z,16.90
2023-01-29T05:01:21.488Z,15.30
2023-01-29T05:03:26.003Z,16.13
2023-01-29T05:05:28.529Z,21.73
2023-01-29T05:07:31.383Z,19.10
2023-01-29T05:09:34.536Z,16.42
2023-01-29T05:11:36.983Z,21.33
2023-01-29T05:13:41.910Z,17.55
2023-01-29T05:15:49.694Z,16.15
2023-01-29T05:17:51.497Z,15.68
2023-01-29T05:19:53.196Z,15.98
2023-01-29T05:21:54.807Z,16.33
2023-01-29T05:24:15.801Z,17.33
2023-01-29T05:26:17.530Z,15.60
2023-01-29T05:28:19.429Z,16.48
2023-01-29T05:30:20.870Z,18.63
2023-01-29T05:32:22.504Z,17.33
2023-01-29T05:34:24.120Z,16.02
2023-01-29T05:36:25.616Z,18.75
2023-01-29T05:38:27.146Z,16.08
2023-01-29T05:40:28.690Z,17.05
2023-01-29T05:42:30.132Z,17.58
2023-01-29T05:44:31.930Z,17.90
2023-01-29T05:46:33.537Z,17.58
2023-01-29T05:48:35.033Z,16.23
2023-01-29T05:50:36.761Z,16.05
2023-01-29T05:52:38.267Z,15.90
2023-01-29T05:54:39.937Z,19.33
2023-01-29T05:56:41.465Z,18.08
2023-01-29T05:58:42.997Z,16.60
2023-01-29T06:00:44.444Z,16.33
2023-01-29T06:02:46.071Z,16.20
2023-01-29T06:04:47.740Z,16.50
2023-01-29T06:06:49.169Z,16.05
2023-01-29T06:08:50.804Z,27.08
2023-01-29T06:10:52.326Z,22.63
2023-01-29T06:12:53.814Z,18.00
2023-01-29T06:14:55.527Z,18.27
2023-01-29T06:16:57.275Z,15.80
2023-01-29T06:18:58.742Z,19.98
2023-01-29T06:21:04.993Z,19.95
2023-01-29T06:23:06.688Z,18.58
2023-01-29T06:25:08.755Z,21.33
2023-01-29T06:27:10.350Z,17.40
2023-01-29T06:29:11.899Z,19.80
2023-01-29T06:31:33.088Z,18.40
2023-01-29T06:33:35.001Z,15.98
2023-01-29T06:35:36.694Z,18.02
2023-01-29T06:37:38.213Z,17.08
2023-01-29T06:39:39.843Z,18.95
2023-01-29T06:41:41.451Z,21.10
2023-01-29T06:43:46.238Z,53.47
2023-01-29T06:45:53.676Z,46.83
2023-01-29T06:47:56.260Z,112.50
2023-01-29T06:49:57.755Z,66.38
2023-01-29T06:51:59.382Z,303.27
2023-01-29T06:54:01.612Z,75.57
2023-01-29T06:56:03.543Z,384.80
2023-01-29T06:58:10.011Z,143.85
2023-01-29T07:00:12.097Z,159.98
2023-01-29T07:02:13.749Z,136.13
2023-01-29T07:04:15.395Z,262.77
2023-01-29T07:06:16.944Z,105.22
2023-01-29T07:08:18.715Z,52.75
2023-01-29T07:10:20.673Z,45.90
2023-01-29T07:12:22.180Z,29.23
2023-01-29T07:14:23.637Z,34.60
2023-01-29T07:16:25.362Z,23.55
2023-01-29T07:18:29.155Z,22.30
2023-01-29T07:20:31.426Z,21.98
2023-01-29T07:22:32.982Z,18.42
2023-01-29T07:24:34.493Z,19.15
2023-01-29T07:26:35.953Z,19.67
2023-01-29T07:28:38.755Z,20.90
2023-01-29T07:30:40.287Z,23.10
2023-01-29T07:32:41.947Z,18.55
2023-01-29T07:34:43.462Z,19.27
2023-01-29T07:36:45.065Z,28.02
2023-01-29T07:38:49.548Z,20.73
2023-01-29T07:40:54.330Z,21.40
2023-01-29T07:42:59.772Z,21.88
2023-01-29T07:45:01.234Z,23.08
2023-01-29T07:47:02.928Z,231.23
2023-01-29T07:49:04.434Z,213.38
2023-01-29T07:51:06.456Z,114.38
2023-01-29T07:53:13.477Z,159.52
2023-01-29T07:55:15.254Z,157.65
2023-01-29T07:57:16.711Z,34.17
2023-01-29T07:59:18.254Z,34.80
2023-01-29T08:01:19.859Z,84.85
2023-01-29T08:03:21.314Z,67.93
2023-01-29T08:05:22.970Z,42.38
2023-01-29T08:07:24.890Z,37.17
2023-01-29T08:09:26.352Z,47.95
2023-01-29T08:11:27.945Z,206.35
2023-01-29T08:13:29.646Z,85.95
2023-01-29T08:15:31.384Z,28.55
2023-01-29T08:17:33.022Z,32.17
2023-01-29T08:19:34.618Z,99.13
2023-01-29T08:21:36.043Z,31.73
2023-01-29T08:23:37.651Z,156.65
2023-01-29T08:25:39.396Z,68.65
2023-01-29T08:27:41.441Z,75.35
2023-01-29T08:29:43.097Z,44.53
2023-01-29T08:31:44.555Z,30.30
2023-01-29T08:33:46.439Z,64.45
2023-01-29T08:35:51.731Z,27.98
2023-01-29T08:37:58.682Z,69.88
2023-01-29T08:40:00.345Z,110.95
2023-01-29T08:42:02.124Z,37.70
2023-01-29T08:44:04.045Z,51.70
2023-01-29T08:46:06.054Z,24.17
2023-01-29T08:48:08.878Z,40.83
2023-01-29T08:50:11.050Z,48.17
2023-01-29T08:52:12.496Z,58.03
2023-01-29T08:54:14.126Z,29.20
2023-01-29T08:56:16.943Z,19.35
2023-01-29T08:58:18.900Z,40.72
2023-01-29T09:00:20.851Z,30.08
2023-01-29T09:02:22.416Z,24.27
2023-01-29T09:04:23.920Z,26.10
2023-01-29T09:06:25.429Z,30.85
2023-01-29T09:08:26.999Z,25.10
2023-01-29T09:10:28.450Z,24.95
2023-01-29T09:12:30.197Z,24.67
2023-01-29T09:14:31.822Z,30.20
2023-01-29T09:16:33.286Z,21.98
2023-01-29T09:18:34.826Z,21.88
2023-01-29T09:20:36.485Z,24.23
2023-01-29T09:22:38.103Z,21.35
2023-01-29T09:24:39.853Z,21.75
2023-01-29T09:26:41.455Z,21.88
2023-01-29T09:28:42.935Z,22.40
2023-01-29T09:30:45.546Z,21.13
2023-01-29T09:32:53.563Z,20.20
2023-01-29T09:34:55.551Z,24.33
2023-01-29T09:36:57.238Z,33.85
2023-01-29T09:38:58.842Z,26.83
2023-01-29T09:41:08.043Z,20.08
2023-01-29T09:43:18.960Z,20.13
2023-01-29T09:45:26.551Z,19.45
2023-01-29T09:47:30.086Z,19.42
2023-01-29T09:52:07.179Z,19.00
2023-01-29T09:54:33.059Z,20.25
2023-01-29T09:56:35.412Z,21.35
2023-01-29T09:58:39.735Z,20.92
2023-01-29T10:01:04.358Z,25.02
2023-01-29T10:03:29.906Z,23.02
2023-01-29T10:06:00.790Z,21.05
2023-01-29T10:08:31.654Z,22.67
2023-01-29T10:10:51.043Z,22.60
2023-01-29T10:12:58.118Z,21.50
2023-01-29T10:15:11.982Z,22.20
2023-01-29T10:17:34.530Z,20.88
2023-01-29T10:19:45.864Z,23.20
2023-01-29T10:22:35.212Z,24.33
2023-01-29T10:24:59.363Z,21.40
2023-01-29T10:27:02.338Z,22.65
2023-01-29T10:29:07.532Z,23.33
2023-01-29T10:31:17.651Z,22.85
2023-01-29T10:33:54.319Z,21.50
2023-01-29T10:36:01.604Z,21.38
2023-01-29T10:38:26.214Z,20.75
2023-01-29T10:40:37.903Z,23.02
2023-01-29T10:42:47.826Z,22.63
2023-01-29T10:45:02.934Z,23.90
2023-01-29T10:47:15.777Z,23.98
2023-01-29T10:49:53.812Z,21.80
2023-01-29T10:52:17.385Z,22.80
2023-01-29T10:54:37.173Z,25.02
2023-01-29T10:56:52.771Z,22.90
2023-01-29T10:59:09.345Z,22.95
2023-01-29T11:01:11.427Z,23.70
2023-01-29T11:03:26.464Z,24.40
2023-01-29T11:05:41.051Z,25.45
2023-01-29T11:07:42.637Z,24.50
2023-01-29T11:09:52.461Z,23.10
2023-01-29T11:12:05.903Z,24.70
2023-01-29T11:14:32.553Z,23.55
2023-01-29T11:16:43.650Z,24.40
2023-01-29T11:18:52.949Z,24.23
2023-01-29T11:21:04.237Z,26.00
2023-01-29T11:23:07.648Z,25.42
2023-01-29T11:25:22.455Z,24.80
2023-01-29T11:27:26.386Z,25.85
2023-01-29T11:29:46.029Z,26.73
2023-01-29T11:31:47.927Z,30.48
2023-01-29T11:33:53.451Z,32.10
2023-01-29T11:35:55.216Z,30.45
2023-01-29T11:38:07.208Z,29.60
2023-01-29T11:40:23.958Z,28.08
2023-01-29T11:42:31.537Z,27.90
2023-01-29T11:44:40.129Z,30.45
2023-01-29T11:46:41.675Z,28.10
2023-01-29T11:48:49.035Z,29.45
2023-01-29T11:50:59.809Z,28.52
2023-01-29T11:53:01.985Z,30.40
2023-01-29T11:55:20.769Z,29.65
2023-01-29T11:57:36.472Z,29.77
2023-01-29T11:59:42.128Z,30.55
2023-01-29T12:01:43.921Z,31.40
2023-01-29T12:03:53.816Z,30.52
2023-01-29T12:05:59.604Z,30.10
2023-01-29T12:08:02.536Z,29.05
2023-01-29T12:10:04.343Z,30.25
2023-01-29T12:12:17.957Z,29.92
2023-01-29T12:14:26.585Z,29.90
2023-01-29T12:16:43.325Z,32.17
2023-01-29T12:18:51.162Z,29.40
2023-01-29T12:21:01.613Z,32.72
2023-01-29T12:23:14.340Z,31.10
2023-01-29T12:25:33.916Z,29.80
2023-01-29T12:27:48.158Z,31.08
2023-01-29T12:29:56.400Z,31.10
2023-01-29T12:32:12.107Z,28.88
2023-01-29T12:34:27.770Z,30.83
2023-01-29T12:36:33.415Z,29.58
2023-01-29T12:38:35.029Z,30.95
2023-01-29T12:41:04.216Z,30.38
2023-01-29T12:43:18.519Z,30.58
2023-01-29T12:45:23.535Z,32.03
2023-01-29T12:47:31.608Z,30.58
2023-01-29T12:49:35.738Z,33.50
2023-01-29T12:51:51.536Z,32.70
2023-01-29T12:53:59.942Z,32.40
2023-01-29T12:56:24.135Z,31.45
2023-01-29T12:58:32.122Z,32.15
2023-01-29T13:00:37.762Z,32.47
2023-01-29T13:03:02.793Z,34.55
2023-01-29T13:05:22.226Z,32.08
2023-01-29T13:07:33.176Z,30.95
2023-01-29T13:09:37.446Z,31.83
2023-01-29T13:12:05.258Z,31.38
2023-01-29T13:14:21.155Z,29.55
2023-01-29T13:16:27.430Z,29.58
2023-01-29T13:19:19.398Z,38.38
2023-01-29T13:21:27.407Z,31.75
2023-01-29T13:23:36.157Z,31.23
2023-01-29T13:25:37.799Z,31.08
2023-01-29T13:27:39.385Z,31.85
2023-01-29T13:29:44.270Z,30.42
2023-01-29T13:31:48.245Z,30.55
2023-01-29T13:33:56.771Z,29.60
2023-01-29T13:35:59.843Z,28.10
2023-01-29T13:38:01.594Z,29.67
2023-01-29T13:40:06.986Z,27.80
2023-01-29T13:42:38.398Z,29.85
2023-01-29T13:44:40.383Z,29.50
2023-01-29T13:46:42.185Z,27.73
2023-01-29T13:48:46.946Z,29.52
2023-01-29T13:50:50.470Z,28.90
2023-01-29T13:52:58.088Z,28.33
2023-01-29T13:55:01.901Z,28.98
2023-01-29T13:57:03.572Z,28.85
2023-01-29T13:59:06.328Z,30.10
2023-01-29T14:01:07.839Z,28.70
2023-01-29T14:03:09.376Z,31.27
2023-01-29T14:05:29.782Z,30.48
2023-01-29T14:07:50.324Z,29.42
2023-01-29T14:10:18.048Z,28.05
2023-01-29T14:12:22.398Z,35.83
2023-01-29T14:14:49.086Z,29.55
2023-01-29T14:16:50.823Z,32.15
2023-01-29T14:18:58.946Z,32.22
2023-01-29T14:21:02.509Z,31.15
2023-01-29T14:25:08.096Z,29.35
2023-01-29T14:27:21.606Z,30.00
2023-01-29T14:29:34.255Z,29.45
2023-01-29T14:31:41.622Z,28.65
2023-01-29T14:33:43.611Z,28.08
2023-01-29T14:35:51.093Z,29.75
2023-01-29T14:37:57.520Z,29.60
2023-01-29T14:40:16.417Z,30.10
2023-01-29T14:42:28.515Z,30.92
2023-01-29T14:44:44.975Z,33.38
2023-01-29T14:46:46.473Z,30.42
2023-01-29T14:48:48.096Z,31.98
2023-01-29T14:50:52.248Z,30.58
2023-01-29T14:52:59.120Z,28.98
2023-01-29T14:55:05.545Z,30.10
2023-01-29T14:57:13.051Z,32.97
2023-01-29T14:59:27.105Z,29.70
2023-01-29T15:01:38.217Z,29.75
2023-01-29T15:03:45.717Z,33.28
2023-01-29T15:05:49.391Z,30.80
2023-01-29T15:07:59.117Z,31.90
2023-01-29T15:10:38.505Z,31.80
2023-01-29T15:13:29.859Z,32.17
2023-01-29T15:15:52.890Z,31.48
2023-01-29T15:18:08.963Z,31.33
2023-01-29T15:20:30.855Z,32.50
2023-01-29T15:22:43.002Z,30.67
2023-01-29T15:24:46.513Z,32.22
2023-01-29T15:26:48.064Z,32.80
2023-01-29T15:29:03.244Z,33.85
2023-01-29T15:31:09.176Z,33.58
2023-01-29T15:33:14.044Z,32.65
2023-01-29T15:35:34.351Z,32.72
2023-01-29T15:37:37.203Z,34.90
2023-01-29T15:39:43.931Z,36.60
2023-01-29T15:41:46.507Z,35.10
2023-01-29T15:43:50.958Z,32.70
2023-01-29T15:45:55.394Z,34.47
2023-01-29T15:48:13.152Z,33.25
2023-01-29T15:50:15.093Z,33.83
2023-01-29T15:52:25.883Z,35.42
2023-01-29T15:54:31.404Z,33.60
2023-01-29T15:56:43.295Z,36.03
2023-01-29T15:58:48.535Z,34.53
2023-01-29T16:00:53.092Z,38.42
2023-01-29T16:02:55.545Z,38.30
2023-01-29T16:04:57.179Z,37.67
2023-01-29T16:07:00.575Z,36.03
2023-01-29T16:09:03.895Z,39.33
2023-01-29T16:11:07.440Z,38.90
2023-01-29T16:15:34.560Z,37.33
2023-01-29T16:17:41.273Z,36.60
2023-01-29T16:19:42.987Z,39.60
2023-01-29T16:21:44.629Z,35.00
2023-01-29T16:23:50.017Z,38.00
2023-01-29T16:25:51.996Z,39.13
2023-01-29T16:27:53.547Z,36.25
2023-01-29T16:29:55.003Z,37.35
2023-01-29T16:31:58.151Z,38.13
2023-01-29T16:34:06.528Z,36.92
2023-01-29T16:36:18.184Z,36.15
2023-01-29T16:38:30.364Z,43.85
2023-01-29T16:40:35.226Z,37.13
2023-01-29T16:42:36.734Z,36.85
2023-01-29T16:44:40.034Z,37.15
2023-01-29T16:46:49.070Z,43.40
2023-01-29T16:48:51.154Z,38.05
2023-01-29T16:51:04.215Z,39.13
2023-01-29T16:53:32.349Z,37.67
2023-01-29T16:55:39.617Z,40.05
2023-01-29T16:57:42.170Z,42.75
2023-01-29T16:59:44.257Z,37.92
2023-01-29T17:01:46.154Z,39.75
2023-01-29T17:03:57.995Z,39.97
2023-01-29T17:06:09.183Z,40.22
2023-01-29T17:08:26.965Z,39.03
2023-01-29T17:10:29.859Z,36.47
2023-01-29T17:12:32.952Z,47.15
2023-01-29T17:14:35.291Z,46.10
2023-01-29T17:16:49.882Z,47.17
2023-01-29T17:18:51.358Z,52.55
2023-01-29T17:20:52.843Z,54.92
2023-01-29T17:22:54.444Z,55.85
2023-01-29T17:24:55.887Z,61.75
2023-01-29T17:26:57.325Z,90.03
2023-01-29T17:28:59.172Z,94.00
2023-01-29T17:31:06.728Z,40.13
2023-01-29T17:33:19.620Z,40.70
2023-01-29T17:35:21.541Z,43.15
2023-01-29T17:37:23.051Z,44.72
2023-01-29T17:39:24.501Z,45.50
2023-01-29T17:41:28.693Z,48.63
2023-01-29T17:43:30.147Z,56.22
2023-01-29T17:45:31.655Z,51.63
2023-01-29T17:47:33.304Z,50.78
2023-01-29T17:49:34.768Z,45.30
2023-01-29T17:51:36.252Z,46.45
2023-01-29T17:53:45.193Z,69.80
2023-01-29T17:55:48.201Z,63.58
2023-01-29T17:57:49.666Z,87.15
2023-01-29T17:59:51.290Z,96.38
2023-01-29T18:01:53.237Z,46.47
2023-01-29T18:03:54.826Z,106.78
2023-01-29T18:05:56.807Z,230.80
2023-01-29T18:07:58.371Z,143.63
2023-01-29T18:09:59.796Z,71.28
2023-01-29T18:12:04.133Z,67.53
2023-01-29T18:14:14.198Z,185.18
2023-01-29T18:16:16.198Z,117.43
2023-01-29T18:18:22.744Z,64.30
2023-01-29T18:20:24.765Z,61.00
2023-01-29T18:22:26.290Z,71.47
2023-01-29T18:24:28.046Z,162.38
2023-01-29T18:26:29.565Z,45.92
2023-01-29T18:28:31.011Z,46.08
2023-01-29T18:30:33.570Z,59.70
2023-01-29T18:32:35.172Z,40.40
2023-01-29T18:34:36.611Z,39.38
2023-01-29T18:36:38.753Z,35.20
2023-01-29T18:38:40.252Z,40.28
2023-01-29T18:40:41.880Z,42.28
2023-01-29T18:42:44.670Z,62.22
2023-01-29T18:44:46.164Z,50.67
2023-01-29T18:46:47.616Z,106.38
2023-01-29T18:48:49.234Z,160.00
2023-01-29T18:50:51.007Z,267.00
2023-01-29T18:52:53.975Z,192.70
2023-01-29T18:54:55.901Z,167.40
2023-01-29T18:57:11.615Z,170.20
2023-01-29T18:59:16.008Z,105.05
2023-01-29T19:01:18.107Z,142.23
2023-01-29T19:03:19.647Z,257.92
2023-01-29T19:05:21.104Z,193.18
2023-01-29T19:07:22.787Z,160.40
2023-01-29T19:09:24.312Z,72.93
2023-01-29T19:11:25.763Z,118.88
2023-01-29T19:13:27.560Z,53.58
2023-01-29T19:15:29.050Z,68.47
2023-01-29T19:17:30.575Z,56.75
2023-01-29T19:19:32.319Z,92.05
2023-01-29T19:21:33.786Z,70.32
2023-01-29T19:23:35.251Z,64.63
2023-01-29T19:25:38.629Z,47.42
2023-01-29T19:27:40.125Z,50.00
2023-01-29T19:29:41.563Z,40.50
2023-01-29T19:31:43.723Z,42.70
2023-01-29T19:33:45.157Z,37.38
2023-01-29T19:35:46.653Z,35.28
2023-01-29T19:37:48.569Z,40.60
2023-01-29T19:39:50.016Z,34.70
2023-01-29T19:41:51.647Z,36.78
2023-01-29T19:43:53.228Z,33.95
2023-01-29T19:46:00.585Z,34.72
2023-01-29T19:48:02.123Z,37.80
2023-01-29T19:50:03.859Z,38.03
2023-01-29T19:52:05.474Z,37.75
2023-01-29T19:54:07.019Z,32.17
2023-01-29T19:56:11.463Z,31.65
2023-01-29T19:58:12.911Z,30.50
2023-01-29T20:00:14.942Z,117.95
2023-01-29T20:02:16.525Z,123.90
2023-01-29T20:04:18.019Z,157.55
2023-01-29T20:06:22.423Z,92.43
2023-01-29T20:08:24.019Z,109.03
2023-01-29T20:10:25.489Z,162.95
2023-01-29T20:12:27.009Z,454.17
2023-01-29T20:14:28.702Z,72.93
2023-01-29T20:16:30.222Z,98.35
2023-01-29T20:18:32.338Z,36.40
2023-01-29T20:20:33.949Z,71.03
2023-01-29T20:22:35.603Z,42.20
2023-01-29T20:24:37.173Z,35.53
2023-01-29T20:26:38.736Z,33.25
2023-01-29T20:28:40.718Z,49.28
2023-01-29T20:30:43.955Z,35.22
2023-01-29T20:32:45.531Z,78.28
2023-01-29T20:34:46.974Z,66.50
2023-01-29T20:36:48.480Z,177.15
2023-01-29T20:38:50.006Z,122.18
2023-01-29T20:40:51.496Z,85.22
2023-01-29T20:42:53.308Z,241.73
2023-01-29T20:44:54.859Z,72.15
2023-01-29T20:46:56.352Z,83.03
2023-01-29T20:48:57.873Z,75.97
2023-01-29T20:51:07.842Z,34.22
2023-01-29T20:53:11.196Z,42.25
2023-01-29T20:55:13.291Z,33.42
2023-01-29T20:57:15.159Z,83.32
2023-01-29T20:59:16.591Z,38.67
2023-01-29T21:01:20.586Z,35.88
2023-01-29T21:03:22.611Z,38.90
2023-01-29T21:05:24.069Z,33.45
2023-01-29T21:07:25.799Z,35.45
2023-01-29T21:09:27.418Z,32.55
2023-01-29T21:11:28.872Z,32.47
2023-01-29T21:13:30.439Z,33.72
2023-01-29T21:15:32.029Z,32.67
2023-01-29T21:17:33.482Z,32.00
2023-01-29T21:19:34.929Z,33.67
2023-01-29T21:21:36.612Z,33.20
2023-01-29T21:23:38.055Z,33.65
2023-01-29T21:25:39.499Z,34.80
2023-01-29T21:27:41.079Z,33.53
2023-01-29T21:29:42.503Z,33.70
2023-01-29T21:31:44.307Z,33.92
2023-01-29T21:33:45.898Z,34.10
2023-01-29T21:35:57.205Z,33.60
2023-01-29T21:37:58.844Z,33.22
2023-01-29T21:40:00.374Z,33.28
2023-01-29T21:42:01.815Z,33.33
2023-01-29T21:44:03.336Z,34.08
2023-01-29T21:46:07.056Z,34.28
2023-01-29T21:48:11.536Z,34.80
2023-01-29T21:50:13.114Z,34.72
2023-01-29T21:52:15.543Z,34.97
2023-01-29T21:54:19.683Z,34.28
2023-01-29T21:56:21.231Z,33.90
2023-01-29T21:58:22.829Z,32.65
2023-01-29T22:00:24.305Z,34.90
2023-01-29T22:02:26.639Z,34.58
2023-01-29T22:04:28.870Z,33.28
2023-01-29T22:06:30.330Z,33.72
2023-01-29T22:08:32.018Z,31.10
2023-01-29T22:10:33.719Z,35.17
2023-01-29T22:12:35.186Z,34.28
2023-01-29T22:14:36.638Z,36.28
2023-01-29T22:16:38.283Z,33.55
2023-01-29T22:18:39.769Z,33.38
2023-01-29T22:20:41.317Z,33.30
2023-01-29T22:22:42.941Z,32.53
2023-01-29T22:24:44.463Z,33.00
2023-01-29T22:26:47.811Z,33.60
2023-01-29T22:28:50.077Z,32.47
2023-01-29T22:30:51.538Z,32.75
2023-01-29T22:32:53.151Z,31.42
2023-01-29T22:34:54.843Z,31.90
2023-01-29T22:36:56.358Z,31.58
2023-01-29T22:38:58.310Z,31.42
2023-01-29T22:41:00.997Z,30.85
2023-01-29T22:43:02.419Z,30.77
2023-01-29T22:45:04.124Z,29.23
2023-01-29T22:47:05.741Z,29.33
2023-01-29T22:49:07.192Z,29.52
2023-01-29T22:51:09.982Z,30.15
2023-01-29T22:53:11.640Z,29.70
2023-01-29T22:55:13.457Z,31.05
2023-01-29T22:57:15.881Z,29.70
2023-01-29T22:59:17.455Z,28.88
2023-01-29T23:01:19.696Z,30.00
2023-01-29T23:03:21.343Z,29.67
2023-01-29T23:05:23.055Z,28.83
2023-01-29T23:07:24.632Z,28.95
2023-01-29T23:09:26.261Z,28.52
2023-01-29T23:11:27.956Z,28.75
2023-01-29T23:13:29.443Z,28.42
2023-01-29T23:15:31.061Z,29.05
2023-01-29T23:17:32.948Z,27.98
2023-01-29T23:19:34.407Z,27.15
2023-01-29T23:21:36.088Z,27.73
2023-01-29T23:23:38.008Z,27.92
2023-01-29T23:25:39.441Z,26.58
2023-01-29T23:27:41.274Z,27.17
2023-01-29T23:29:46.736Z,26.65
2023-01-29T23:31:48.475Z,26.48
2023-01-29T23:33:50.406Z,25.05
2023-01-29T23:35:52.109Z,25.35
2023-01-29T23:37:53.551Z,24.02
2023-01-29T23:39:55.130Z,26.08
2023-01-29T23:41:56.815Z,25.50
2023-01-29T23:43:58.242Z,25.10
2023-01-29T23:45:59.763Z,24.55
2023-01-29T23:48:01.304Z,25.10
2023-01-29T23:50:02.770Z,25.15
2023-01-29T23:52:04.488Z,26.02
2023-01-29T23:54:06.493Z,25.45
2023-01-29T23:56:08.205Z,24.98
2023-01-29T23:58:10.137Z,24.85
